from: Apr 22 2021 3:50 am until: 8:00 pm Special Weather Statement level: Minor
Minimal threat to life or property - Responsive action SHOULD be taken soon (within next hour)


my webcam  My webcam


visit our other weather sites:

Template documentation
and downloads

And another site




nearby metar reports

   
KAHN - Athens Airport, GA
distance from station: e 35 mi
updated: Apr 22 2021 6:51 pm
clear  
clear  
   wind: varies 4.6 mph
wind: varies 4.6 mph
temperature: 62.6°F
dew point: 24.8°F
humidity: 24%
barometer: 30.11 inHg
clouds: Clear
visibility: 10 mi
cloud details: clear ft
KAHN 222251Z VRB04KT 10SM CLR 17/M04 A3011 RMK AO2 SLP198 T01671039
KBGE - Brainbridge Airport, GA
distance from station: ssw 180 mi
updated: Apr 22 2021 7:15 pm
clear  
clear  
   wind: ne 3.5 mph
wind: ne 3.5 mph
temperature: 64.4°F
dew point: 30.2°F
humidity: 28%
barometer: 30.13 inHg
clouds: Clear
visibility: 10 mi
cloud details: clear ft
KBGE 222315Z AUTO 05003KT 10SM CLR 18/M01 A3013 RMK AO2 T01831010
KSSI - Brunswick Airport, GA
distance from station: se 209 mi
updated: Apr 22 2021 6:53 pm
clear  
clear  
   wind: se 6.9 mph
wind: se 6.9 mph
temperature: 57.2°F
dew point: 35.6°F
humidity: 44%
barometer: 30.15 inHg
clouds: Clear
visibility: 10 mi
cloud details: clear ft
KSSI 222253Z AUTO 13006KT 10SM CLR 14/02 A3015 RMK AO2 SLP211 T01440022
KCSG - Columbus Airport, GA
distance from station: sw 92 mi
updated: Apr 22 2021 6:51 pm
clear  
clear  
   wind: calm
wind: calm
temperature: 64.4°F
dew point: 23°F
humidity: 21%
barometer: 30.13 inHg
clouds: Clear
visibility: 10 mi
cloud details: clear ft
KCSG 222251Z 00000KT 10SM CLR 18/M05 A3013 RMK AO2 SLP202 T01831050
KGVL - Gainsville Airport, GA
distance from station: n 30 mi
updated: Apr 22 2021 6:53 pm
clear  
clear  
   wind: west 11.5 mph
wind: west 11.5 mph
temperature: 59°F
dew point: 23°F
humidity: 25%
barometer: 30.12 inHg
clouds: Clear
visibility: 10 mi
cloud details: clear ft
KGVL 222253Z AUTO 27010KT 10SM CLR 15/M05 A3012 RMK AO2 SLP198 T01501050
KRMG - Rome Airport, GA
distance from station: nw 60 mi
updated: Apr 22 2021 6:53 pm
clear  
clear  
   wind: wsw 5.8 mph
wind: wsw 5.8 mph
temperature: 62.6°F
dew point: 28.4°F
humidity: 27%
barometer: 30.12 inHg
clouds: Clear
visibility: 10 mi
cloud details: clear ft
KRMG 222253Z AUTO 24005KT 10SM CLR 17/M02 A3012 RMK AO2 SLP197 T01721022
KSAV - Savannah Airport, GA
distance from station: se 183 mi
updated: Apr 22 2021 6:53 pm
clear  
clear  
   wind: south 10.4 mph
wind: south 10.4 mph
temperature: 59°F
dew point: 33.8°F
humidity: 39%
barometer: 30.14 inHg
clouds: Clear
visibility: 10 mi
cloud details: clear ft
KSAV 222253Z 17009KT 10SM CLR 15/01 A3014 RMK AO2 SLP205 T01500011
KVLD - Valdosta Airport, GA
distance from station: s 185 mi
updated: Apr 22 2021 6:53 pm
clear  
clear  
   wind: north 6.9 mph
wind: north 6.9 mph
temperature: 64.4°F
dew point: 30.2°F
humidity: 28%
barometer: 30.13 inHg
clouds: Clear
visibility: 10 mi
cloud details: clear ft
KVLD 222253Z AUTO 36006KT 10SM CLR 18/M01 A3013 RMK AO2 SLP211 T01831006
KWRB - Warner Robins Airport, GA
distance from station: sse 78 mi
updated: Apr 22 2021 6:56 pm
few clouds  
few clouds  
   wind: calm
wind: calm
temperature: 64.4°F
dew point: 26.6°F
humidity: 24%
barometer: 30.13 inHg
clouds: Few Clouds
visibility: 10 mi
cloud details: few clouds 25000 ft
KWRB 222256Z 00000KT 10SM FEW250 18/M03 A3013 RMK AO2A SLP206 T01801035

script developed by  Saratoga-weather.org adapted for the template by  Weerstation Leuven

equipment we use:

weather-station
Davis VP2 weatherstation

weather-program
WeatherLink

weather-server
My Computer

provider
My provider

Davis VP2 weatherstation

WeatherLink

My Computer

My provider